Time;durP1;ratioP1;P1;durP2;ratioP2;P2;SDS_P1;SDS_P2;PMS_P1;PMS_P2;Temp;Humidity;BMP_temperature;BMP_pressure;BME280_temperature;BME280_humidity;BME280_pressure;Samples;Min_cycle;Max_cycle;Signal;HPM_P1;HPM_P2
2023/09/08 00:02:03;;;;;;;7.32;6.72;;;;;;;20.39;60.54;95379.69;5118067;28;20199;-64
2023/09/08 00:04:30;;;;;;;8.07;7.18;;;;;;;20.32;60.93;95379.75;5117814;28;20213;-64
2023/09/08 00:06:57;;;;;;;8.43;7.63;;;;;;;20.35;60.98;95384.53;5117806;28;20207;-64
2023/09/08 00:09:23;;;;;;;7.60;6.90;;;;;;;20.36;61.30;95383.31;5117341;28;20541;-64
2023/09/08 00:11:50;;;;;;;8.50;7.80;;;;;;;20.40;61.32;95381.28;5135588;28;20622;-64
2023/09/08 00:14:17;;;;;;;8.65;7.85;;;;;;;20.41;61.43;95382.91;5135756;28;20191;-64
2023/09/08 00:16:45;;;;;;;8.02;7.43;;;;;;;20.35;61.82;95387.34;5117692;28;20199;-64
2023/09/08 00:19:12;;;;;;;8.52;7.72;;;;;;;20.36;62.00;95382.53;5135793;28;20191;-64
2023/09/08 00:21:39;;;;;;;9.07;8.18;;;;;;;20.32;61.14;95373.34;5117412;28;20194;-64
2023/09/08 00:24:06;;;;;;;8.15;7.35;;;;;;;20.28;61.52;95372.56;5135365;28;20191;-64
2023/09/08 00:26:33;;;;;;;7.85;7.05;;;;;;;20.28;61.20;95370.56;5135382;28;20215;-64
2023/09/08 00:29:00;;;;;;;8.23;7.60;;;;;;;20.29;61.28;95374.16;5135596;28;20227;-64
2023/09/08 00:31:27;;;;;;;8.25;7.55;;;;;;;20.19;61.22;95371.03;5119471;27;20202;-64
2023/09/08 00:33:55;;;;;;;8.13;7.32;;;;;;;20.19;60.95;95370.22;5121268;27;20187;-64
2023/09/08 00:36:22;;;;;;;8.10;7.43;;;;;;;20.18;60.91;95369.41;5121180;27;20240;-64
2023/09/08 00:38:49;;;;;;;7.65;6.95;;;;;;;20.19;60.62;95368.22;5121467;27;20191;-64
2023/09/08 00:41:15;;;;;;;7.35;6.55;;;;;;;20.19;59.08;95367.44;5139255;27;20190;-64
2023/09/08 00:43:42;;;;;;;6.97;6.38;;;;;;;20.17;59.04;95373.41;5121291;27;20201;-64
2023/09/08 00:46:09;;;;;;;7.00;6.28;;;;;;;20.13;58.85;95369.06;5121109;27;20247;-63
2023/09/08 00:48:37;;;;;;;6.32;5.75;;;;;;;20.14;59.28;95365.81;5120524;27;20202;-64
2023/09/08 00:51:07;;;;;;;6.25;5.60;;;;;;;20.10;59.19;95358.66;5138914;27;20191;-63
2023/09/08 00:53:34;;;;;;;6.75;6.05;;;;;;;20.06;58.62;95355.88;5120957;27;20199;-64
2023/09/08 00:56:01;;;;;;;6.10;5.60;;;;;;;20.08;58.87;95353.47;5120587;27;20205;-64
2023/09/08 00:58:28;;;;;;;6.00;5.43;;;;;;;20.07;58.93;95351.06;5120441;27;20202;-64
2023/09/08 01:00:57;;;;;;;9.25;5.55;;;;;;;20.03;58.31;95351.09;5138914;27;20202;-64
2023/09/08 01:03:24;;;;;;;6.05;5.55;;;;;;;20.03;58.45;95362.28;5120944;27;20194;-64
2023/09/08 01:05:51;;;;;;;6.80;5.22;;;;;;;20.02;57.92;95352.31;5138653;27;20183;-65
2023/09/08 01:08:19;;;;;;;5.70;5.20;;;;;;;20.02;57.53;95360.69;5138366;27;20603;-64
2023/09/08 01:10:46;;;;;;;6.82;5.32;;;;;;;20.02;57.81;95357.91;5120528;27;20211;-64
2023/09/08 01:13:13;;;;;;;5.53;4.68;;;;;;;20.02;58.22;95359.91;5120570;27;20583;-64
2023/09/08 01:15:40;;;;;;;5.07;4.65;;;;;;;19.99;58.05;95352.31;5138434;27;20187;-64
2023/09/08 01:18:07;;;;;;;5.40;4.97;;;;;;;19.98;58.23;95353.53;5120385;27;20206;-64
2023/09/08 01:20:47;;;;;;;6.72;5.35;;;;;;;19.97;57.72;95361.09;5120594;27;20174;-64
2023/09/08 01:23:23;;;;;;;4.88;4.47;;;;;;;19.93;57.60;95354.72;5120781;27;20202;-64
2023/09/08 01:25:54;;;;;;;5.22;4.72;;;;;;;19.95;57.74;95349.53;5120229;27;20197;-64
2023/09/08 01:28:21;;;;;;;5.50;5.10;;;;;;;19.96;57.96;95353.91;5138450;27;20267;-64
2023/09/08 01:30:48;;;;;;;5.88;4.95;;;;;;;19.99;57.97;95346.72;5137674;27;20238;-64
2023/09/08 01:33:15;;;;;;;5.22;4.80;;;;;;;20.00;57.68;95353.91;5138061;27;20190;-64
2023/09/08 01:35:42;;;;;;;4.93;4.53;;;;;;;19.98;57.65;95343.13;5119971;27;20195;-64
2023/09/08 01:38:09;;;;;;;5.25;4.85;;;;;;;20.00;57.67;95339.91;5119769;27;20206;-64
2023/09/08 01:40:36;;;;;;;5.57;4.80;;;;;;;20.00;57.70;95345.50;5119920;27;20599;-64
2023/09/08 01:43:05;;;;;;;5.85;4.85;;;;;;;19.97;57.59;95335.91;5136903;27;20190;-64
2023/09/08 01:45:31;;;;;;;5.20;4.78;;;;;;;19.94;57.95;95326.34;5137924;27;20175;-64
2023/09/08 01:47:58;;;;;;;5.13;4.63;;;;;;;19.93;57.93;95335.97;5120055;27;20195;-64
2023/09/08 01:50:25;;;;;;;5.13;4.55;;;;;;;19.95;58.17;95339.13;5119672;27;20226;-64
2023/09/08 01:52:52;;;;;;;5.10;4.63;;;;;;;19.96;58.46;95340.72;5137476;27;20198;-64
2023/09/08 01:55:18;;;;;;;4.97;4.57;;;;;;;19.99;58.61;95341.91;5137683;27;20191;-64
2023/09/08 01:57:46;;;;;;;4.97;4.47;;;;;;;19.98;59.19;95345.13;5119637;27;20197;-64
2023/09/08 02:00:15;;;;;;;6.25;4.63;;;;;;;19.94;59.91;95339.56;5137831;27;20217;-64
2023/09/08 02:02:42;;;;;;;5.07;4.60;;;;;;;19.91;59.40;95338.34;5137582;27;20203;-64
2023/09/08 02:05:09;;;;;;;6.35;4.95;;;;;;;19.91;60.63;95334.75;5119294;27;20191;-64
2023/09/08 02:07:36;;;;;;;5.18;4.68;;;;;;;19.89;60.28;95331.56;5137450;27;20191;-64
2023/09/08 02:10:03;;;;;;;5.78;5.28;;;;;;;19.85;60.51;95334.38;5137589;27;20267;-64
2023/09/08 02:12:29;;;;;;;5.90;5.30;;;;;;;19.83;61.08;95345.19;5119291;27;20194;-63
2023/09/08 02:14:56;;;;;;;6.40;5.47;;;;;;;19.81;61.59;95346.78;5137534;27;20187;-63
2023/09/08 02:17:24;;;;;;;5.75;5.10;;;;;;;19.68;61.95;95335.25;5137264;27;20195;-64
2023/09/08 02:19:51;;;;;;;5.50;5.05;;;;;;;19.66;61.70;95330.06;5137224;27;20210;-64
2023/09/08 02:22:18;;;;;;;9.13;5.35;;;;;;;19.67;61.65;95328.84;5137153;27;20186;-64
2023/09/08 02:24:44;;;;;;;5.50;5.00;;;;;;;19.66;62.24;95330.06;5119036;27;20607;-64
2023/09/08 02:27:11;;;;;;;6.00;5.45;;;;;;;19.68;62.24;95319.28;5137011;27;20191;-64
2023/09/08 02:29:38;;;;;;;5.85;5.30;;;;;;;19.71;62.19;95328.84;5136919;27;20230;-64
2023/09/08 02:32:05;;;;;;;6.05;5.45;;;;;;;19.67;62.69;95322.47;5119004;27;20203;-64
2023/09/08 02:34:37;;;;;;;6.07;5.22;;;;;;;19.64;62.56;95318.47;5118641;27;20191;-64
2023/09/08 02:37:04;;;;;;;8.00;5.40;;;;;;;19.66;62.96;95318.88;5118759;27;20602;-64
2023/09/08 02:39:31;;;;;;;6.03;5.43;;;;;;;19.64;62.92;95324.06;5136868;27;20190;-64
2023/09/08 02:41:58;;;;;;;6.07;5.50;;;;;;;19.63;63.16;95322.47;5118925;27;20187;-64
2023/09/08 02:44:25;;;;;;;5.80;5.28;;;;;;;19.65;63.24;95322.09;5118694;27;20206;-64
2023/09/08 02:46:52;;;;;;;6.15;5.55;;;;;;;19.62;63.47;95322.84;5136745;27;20199;-64
2023/09/08 02:49:19;;;;;;;7.32;5.75;;;;;;;19.59;63.74;95318.88;5136655;27;20198;-64
2023/09/08 02:51:48;;;;;;;6.20;5.60;;;;;;;19.54;64.06;95319.28;5119120;27;20183;-64
2023/09/08 02:54:14;;;;;;;7.03;5.65;;;;;;;19.53;64.52;95319.69;5136325;27;20187;-64
2023/09/08 02:56:41;;;;;;;7.68;6.32;;;;;;;19.50;64.64;95321.31;5118190;27;20190;-64
2023/09/08 02:59:08;;;;;;;6.63;5.88;;;;;;;19.48;65.06;95323.69;5118530;27;20203;-64
2023/09/08 03:01:34;;;;;;;7.82;6.05;;;;;;;19.48;64.97;95320.91;5136199;27;20175;-64
2023/09/08 03:04:01;;;;;;;6.18;5.57;;;;;;;19.46;65.65;95323.28;5118574;27;20195;-64
2023/09/08 03:06:28;;;;;;;6.22;5.72;;;;;;;19.40;65.73;95330.53;5136516;27;20252;-64
2023/09/08 03:08:56;;;;;;;6.80;6.10;;;;;;;19.40;65.69;95319.34;5136572;27;20179;-64
2023/09/08 03:11:23;;;;;;;6.57;5.97;;;;;;;19.34;66.19;95324.53;5118682;27;20207;-64
2023/09/08 03:13:49;;;;;;;6.88;6.18;;;;;;;19.34;66.06;95321.72;5136355;27;20195;-64
2023/09/08 03:16:16;;;;;;;6.65;5.95;;;;;;;19.31;66.03;95318.94;5118292;27;20288;-64
2023/09/08 03:18:43;;;;;;;7.18;6.47;;;;;;;19.24;66.30;95322.56;5118187;27;20194;-64
2023/09/08 03:21:10;;;;;;;7.22;6.55;;;;;;;19.23;66.29;95315.38;5118500;28;20199;-64
2023/09/08 03:23:37;;;;;;;6.47;5.85;;;;;;;19.19;66.38;95320.97;5118136;28;20256;-64
2023/09/08 03:26:06;;;;;;;7.47;6.72;;;;;;;19.16;66.37;95320.97;5136311;27;20187;-64
2023/09/08 03:28:34;;;;;;;7.28;6.57;;;;;;;19.10;66.96;95329.00;5118034;28;20203;-64
2023/09/08 03:31:01;;;;;;;7.25;6.55;;;;;;;19.05;67.61;95329.38;5135676;27;20242;-64
2023/09/08 03:33:28;;;;;;;7.18;6.47;;;;;;;19.03;67.53;95336.56;5135861;28;20203;-64
2023/09/08 03:35:56;;;;;;;6.90;6.30;;;;;;;19.04;66.92;95338.19;5118008;28;20683;-64
2023/09/08 03:38:23;;;;;;;7.25;6.25;;;;;;;19.04;67.37;95336.19;5136131;28;20239;-63
2023/09/08 03:40:49;;;;;;;10.85;6.60;;;;;;;19.02;67.50;95341.34;5136064;28;20186;-64
2023/09/08 03:43:17;;;;;;;7.13;6.43;;;;;;;19.02;67.08;95338.56;5136044;28;20179;-64
2023/09/08 03:45:44;;;;;;;7.90;7.05;;;;;;;18.97;67.94;95344.56;5135780;28;20194;-64
2023/09/08 03:48:11;;;;;;;9.00;7.55;;;;;;;18.95;67.69;95338.56;5101242;28;20206;-64
2023/09/08 03:50:38;;;;;;;7.45;6.75;;;;;;;18.92;67.72;95348.56;5136003;28;20203;-63
2023/09/08 03:53:05;;;;;;;7.20;6.50;;;;;;;18.92;67.75;95336.59;5135940;28;20183;-64
2023/09/08 03:55:32;;;;;;;7.45;6.85;;;;;;;18.91;67.73;95343.38;5136007;28;20209;-64
2023/09/08 03:57:59;;;;;;;9.27;7.43;;;;;;;18.88;67.85;95345.00;5135682;28;20527;-64
2023/09/08 04:00:27;;;;;;;7.70;6.82;;;;;;;18.84;68.13;95340.56;5135841;28;20187;-64
2023/09/08 04:02:53;;;;;;;7.43;6.60;;;;;;;18.81;68.34;95345.00;5117839;28;20206;-64
2023/09/08 04:05:20;;;;;;;7.28;6.68;;;;;;;18.82;68.22;95349.38;5118043;28;20191;-64
2023/09/08 04:07:47;;;;;;;7.53;6.88;;;;;;;18.80;68.55;95351.75;5121694;27;20234;-63
2023/09/08 04:10:15;;;;;;;7.03;6.43;;;;;;;18.76;68.84;95348.97;5121781;27;20215;-63
2023/09/08 04:12:42;;;;;;;7.07;6.43;;;;;;;18.71;69.28;95352.16;5139726;27;20179;-63
2023/09/08 04:15:09;;;;;;;6.95;6.13;;;;;;;18.69;69.55;95354.50;5121612;27;20607;-63
2023/09/08 04:17:38;;;;;;;7.60;6.43;;;;;;;18.66;69.72;95351.72;5139632;27;20190;-63
2023/09/08 04:20:06;;;;;;;7.32;6.63;;;;;;;18.64;69.88;95349.34;5121730;27;20186;-63
2023/09/08 04:22:33;;;;;;;8.68;7.47;;;;;;;18.63;69.98;95347.75;5121397;27;20195;-63
2023/09/08 04:25:00;;;;;;;7.95;7.15;;;;;;;18.60;69.93;95350.53;5139705;27;20510;-63
2023/09/08 04:27:27;;;;;;;8.57;6.97;;;;;;;18.55;70.31;95357.28;5121543;27;20210;-63
2023/09/08 04:29:54;;;;;;;8.38;7.53;;;;;;;18.51;70.46;95360.09;5139495;27;20253;-63
2023/09/08 04:32:20;;;;;;;8.75;7.68;;;;;;;18.50;70.60;95361.28;5139328;27;20183;-63
2023/09/08 04:34:50;;;;;;;9.82;7.90;;;;;;;18.48;70.74;95365.66;5139137;27;20224;-63
2023/09/08 04:37:16;;;;;;;9.73;8.20;;;;;;;18.49;70.99;95367.28;5121266;27;20199;-63
2023/09/08 04:39:43;;;;;;;8.57;7.68;;;;;;;18.49;71.09;95365.28;5121133;27;20191;-62
2023/09/08 04:42:10;;;;;;;11.60;8.63;;;;;;;18.49;71.10;95364.50;5121027;27;20205;-62
2023/09/08 04:44:37;;;;;;;12.40;8.68;;;;;;;18.48;71.33;95366.50;5121031;27;20187;-62
2023/09/08 04:47:05;;;;;;;9.18;8.20;;;;;;;18.48;71.19;95360.09;5139109;27;20192;-62
2023/09/08 04:49:32;;;;;;;9.00;8.02;;;;;;;18.46;71.33;95356.91;5121046;27;20195;-63
2023/09/08 04:52:00;;;;;;;9.55;8.55;;;;;;;18.48;71.22;95358.13;5138981;27;20206;-62
2023/09/08 04:54:27;;;;;;;8.82;7.95;;;;;;;18.53;71.36;95359.72;5120895;27;20569;-62
2023/09/08 04:56:54;;;;;;;8.43;7.40;;;;;;;18.56;71.19;95358.91;5121496;27;20260;-63
2023/09/08 04:59:22;;;;;;;10.50;7.55;;;;;;;18.60;71.06;95353.34;5139109;27;20219;-63
2023/09/08 05:01:49;;;;;;;9.27;7.53;;;;;;;18.65;70.87;95359.31;5121003;27;20256;-63
2023/09/08 05:04:17;;;;;;;10.68;7.90;;;;;;;18.68;70.71;95355.72;5120601;27;20606;-63
2023/09/08 05:06:44;;;;;;;11.15;7.97;;;;;;;18.72;70.64;95359.34;5120544;27;20203;-63
2023/09/08 05:09:12;;;;;;;9.35;8.48;;;;;;;18.76;70.79;95356.53;5138391;27;20180;-63
2023/09/08 05:11:39;;;;;;;8.82;7.95;;;;;;;18.79;70.31;95363.34;5120541;27;20223;-63
2023/09/08 05:14:05;;;;;;;8.65;7.80;;;;;;;18.80;70.56;95354.56;5138257;27;20187;-63
2023/09/08 05:16:39;;;;;;;9.55;8.52;;;;;;;18.82;70.52;95354.97;5138223;27;20543;-67
2023/09/08 05:19:06;;;;;;;8.32;7.35;;;;;;;18.85;70.71;95356.97;5120695;27;20279;-67
2023/09/08 05:21:33;;;;;;;8.52;7.72;;;;;;;18.87;70.66;95357.34;5120344;27;20199;-68
2023/09/08 05:24:00;;;;;;;10.77;8.45;;;;;;;18.89;71.21;95352.16;5120294;27;20195;-68
2023/09/08 05:26:28;;;;;;;9.57;8.63;;;;;;;18.93;71.17;95360.56;5138447;27;20179;-68
2023/09/08 05:28:54;;;;;;;9.60;8.65;;;;;;;18.94;71.26;95354.56;5138207;27;20199;-67
2023/09/08 05:31:21;;;;;;;10.60;9.02;;;;;;;18.95;71.22;95367.34;5120390;27;20206;-67
2023/09/08 05:33:49;;;;;;;9.63;8.68;;;;;;;18.97;70.97;95364.94;5138195;27;20183;-67
2023/09/08 05:36:15;;;;;;;11.20;8.77;;;;;;;19.01;71.11;95364.94;5138393;27;20194;-67
2023/09/08 05:38:42;;;;;;;10.70;8.75;;;;;;;19.05;70.46;95368.53;5137809;27;20183;-66
2023/09/08 05:41:09;;;;;;;9.50;7.65;;;;;;;19.10;70.02;95368.13;5120607;27;20198;-66
2023/09/08 05:43:37;;;;;;;6.85;6.25;;;;;;;19.17;69.11;95373.72;5119748;27;20198;-66
2023/09/08 05:46:04;;;;;;;6.75;6.15;;;;;;;19.22;67.84;95364.13;5138132;27;20210;-67
2023/09/08 05:48:31;;;;;;;7.30;6.20;;;;;;;19.28;66.78;95367.28;5120048;27;20198;-67
2023/09/08 05:50:58;;;;;;;7.25;6.30;;;;;;;19.34;66.65;95368.47;5119681;27;20207;-67
2023/09/08 05:53:25;;;;;;;6.03;5.45;;;;;;;19.39;66.13;95371.69;5119731;27;20191;-67
2023/09/08 05:55:52;;;;;;;6.53;5.65;;;;;;;19.43;66.34;95371.69;5137511;27;20179;-68
2023/09/08 05:58:19;;;;;;;6.82;6.22;;;;;;;19.52;65.48;95371.25;5137648;27;20187;-67
2023/09/08 06:00:47;;;;;;;6.72;6.10;;;;;;;19.53;66.03;95372.84;5137411;27;20190;-67
2023/09/08 06:03:14;;;;;;;8.10;6.07;;;;;;;19.54;65.76;95372.44;5120165;27;20516;-67
2023/09/08 06:05:40;;;;;;;6.72;6.10;;;;;;;19.59;65.80;95368.44;5119763;27;20251;-66
2023/09/08 06:08:07;;;;;;;7.38;6.03;;;;;;;19.64;65.43;95377.22;5137325;27;20171;-67
2023/09/08 06:10:34;;;;;;;7.47;5.80;;;;;;;19.68;64.56;95380.00;5137048;27;20642;-66
2023/09/08 06:13:01;;;;;;;5.82;5.32;;;;;;;19.70;63.01;95372.03;5119135;27;20243;-66
2023/09/08 06:15:28;;;;;;;6.07;5.10;;;;;;;19.71;61.42;95368.81;5137334;27;20255;-66
2023/09/08 06:17:56;;;;;;;5.90;4.57;;;;;;;19.76;61.04;95369.63;5119306;27;20556;-66
2023/09/08 06:20:24;;;;;;;5.97;5.10;;;;;;;19.79;61.45;95365.97;5137238;27;20341;-67
2023/09/08 06:22:51;;;;;;;5.35;4.85;;;;;;;19.83;61.37;95373.19;5103030;27;20206;-66
2023/09/08 06:25:18;;;;;;;6.18;5.40;;;;;;;19.87;61.08;95371.16;5137214;27;20175;-67
2023/09/08 06:27:45;;;;;;;7.28;5.10;;;;;;;19.93;60.79;95377.94;5137033;27;20252;-66
2023/09/08 06:30:14;;;;;;;5.50;5.00;;;;;;;19.99;60.31;95375.50;5114928;28;20238;-67
2023/09/08 06:32:41;;;;;;;6.32;5.50;;;;;;;20.02;59.91;95374.69;5116360;27;20199;-67
2023/09/08 06:35:09;;;;;;;5.95;5.13;;;;;;;20.08;59.79;95383.47;5116036;28;20196;-67
2023/09/08 06:37:37;;;;;;;9.82;5.10;;;;;;;20.15;59.13;95383.44;5115861;28;20287;-66
2023/09/08 06:40:05;;;;;;;6.32;5.18;;;;;;;20.22;59.37;95383.38;5115758;28;20203;-65
2023/09/08 06:42:32;;;;;;;5.57;4.80;;;;;;;20.27;58.02;95382.97;5115453;28;20200;-66
2023/09/08 06:44:59;;;;;;;5.97;4.90;;;;;;;20.32;58.26;95382.53;5116346;28;20184;-66
2023/09/08 06:47:26;;;;;;;6.07;4.60;;;;;;;20.41;58.95;95388.50;5115953;28;20214;-67
2023/09/08 06:49:53;;;;;;;4.82;4.40;;;;;;;20.52;56.58;95380.06;5115727;28;20196;-65
2023/09/08 06:52:21;;;;;;;4.55;4.15;;;;;;;20.59;57.22;95385.63;5116177;28;20226;-66
2023/09/08 06:54:47;;;;;;;6.70;4.38;;;;;;;20.72;57.83;95396.34;5115349;28;20202;-65
2023/09/08 06:57:14;;;;;;;4.60;4.13;;;;;;;20.79;56.93;95394.28;5115738;28;20547;-66
2023/09/08 06:59:41;;;;;;;5.32;4.43;;;;;;;20.79;56.24;95388.69;5116246;28;20200;-67
2023/09/08 07:02:08;;;;;;;4.57;4.18;;;;;;;20.84;56.70;95387.44;5115157;28;20184;-65
2023/09/08 07:04:35;;;;;;;4.85;4.00;;;;;;;20.94;56.03;95403.38;5115958;28;20245;-66
2023/09/08 07:07:03;;;;;;;6.35;4.13;;;;;;;20.94;55.29;95402.59;5115544;28;20210;-68
2023/09/08 07:09:31;;;;;;;5.35;4.13;;;;;;;20.96;53.23;95400.19;5115068;28;20244;-67
2023/09/08 07:11:59;;;;;;;4.53;3.80;;;;;;;20.92;53.01;95392.59;5115208;28;20223;-68
2023/09/08 07:14:26;;;;;;;6.07;4.03;;;;;;;20.91;51.47;95396.63;5114919;28;20568;-69
2023/09/08 07:16:52;;;;;;;5.68;3.80;;;;;;;20.92;51.99;95400.22;5115208;28;20208;-67
2023/09/08 07:19:19;;;;;;;4.45;4.05;;;;;;;20.95;51.37;95398.56;5115796;28;20187;-68
2023/09/08 07:21:46;;;;;;;3.70;3.40;;;;;;;20.95;50.38;95395.75;5114988;28;20195;-67
2023/09/08 07:24:13;;;;;;;3.83;3.53;;;;;;;20.96;49.13;95389.75;5115137;28;20203;-68
2023/09/08 07:26:41;;;;;;;3.85;3.55;;;;;;;21.03;50.56;95394.53;5115365;28;20199;-67
2023/09/08 07:29:08;;;;;;;3.90;3.53;;;;;;;21.11;48.90;95387.63;5119439;27;20239;-67
2023/09/08 07:31:35;;;;;;;3.88;3.50;;;;;;;21.16;49.23;95387.19;5135988;28;20650;-68
2023/09/08 07:34:01;;;;;;;4.82;3.88;;;;;;;21.24;50.02;95383.13;5136281;28;20606;-69
2023/09/08 07:36:29;;;;;;;4.10;3.78;;;;;;;21.33;49.88;95388.25;5136039;28;20203;-69
2023/09/08 07:38:55;;;;;;;3.72;3.40;;;;;;;21.39;49.37;95381.00;5136094;28;20191;-68
2023/09/08 07:41:22;;;;;;;4.20;3.80;;;;;;;21.48;48.71;95386.13;5137750;27;20194;-68
2023/09/08 07:43:50;;;;;;;5.07;3.72;;;;;;;21.57;49.22;95390.03;5122645;27;20199;-67
2023/09/08 07:46:17;;;;;;;4.10;3.70;;;;;;;21.68;48.76;95389.94;5140175;27;20236;-67
2023/09/08 07:48:44;;;;;;;4.70;4.18;;;;;;;21.75;49.21;95392.66;5140027;27;20179;-67
2023/09/08 07:51:11;;;;;;;3.90;3.55;;;;;;;21.85;48.17;95393.75;5122637;27;20219;-67
2023/09/08 07:53:38;;;;;;;5.13;4.72;;;;;;;21.94;48.14;95393.25;5140428;27;20183;-68
2023/09/08 07:56:05;;;;;;;4.60;4.20;;;;;;;21.98;48.28;95385.59;5121890;27;20206;-67
2023/09/08 07:58:32;;;;;;;4.55;4.15;;;;;;;22.05;46.81;95385.50;5121941;27;20252;-68
2023/09/08 08:01:00;;;;;;;5.78;4.35;;;;;;;22.14;46.84;95387.78;5140266;27;20198;-69
2023/09/08 08:03:27;;;;;;;5.57;4.60;;;;;;;22.23;47.57;95390.91;5122366;27;20207;-69
2023/09/08 08:05:53;;;;;;;4.57;4.18;;;;;;;22.24;47.32;95381.28;5139600;27;20501;-68
2023/09/08 08:08:20;;;;;;;4.68;4.20;;;;;;;22.33;47.04;95382.34;5121766;27;20195;-69
2023/09/08 08:10:47;;;;;;;6.60;4.28;;;;;;;22.41;46.86;95379.44;5140164;27;20175;-69
2023/09/08 08:13:13;;;;;;;4.90;4.50;;;;;;;22.49;47.25;95381.72;5122068;27;20214;-69
2023/09/08 08:15:42;;;;;;;4.63;4.10;;;;;;;22.56;45.20;95373.19;5121909;27;20195;-67
2023/09/08 08:18:10;;;;;;;5.57;5.18;;;;;;;22.66;47.78;95374.28;5121412;27;20282;-63
2023/09/08 08:20:37;;;;;;;5.75;3.72;;;;;;;22.76;45.20;95372.50;5121191;27;20199;-64
2023/09/08 08:23:05;;;;;;;6.35;5.05;;;;;;;22.85;46.89;95369.16;5121624;27;20202;-68
2023/09/08 08:25:32;;;;;;;4.43;4.00;;;;;;;22.83;44.11;95366.75;5139307;27;20513;-67
2023/09/08 08:28:00;;;;;;;5.00;4.50;;;;;;;22.72;45.70;95368.94;5121398;27;20207;-67
2023/09/08 08:30:27;;;;;;;4.65;4.07;;;;;;;22.57;44.37;95371.19;5117581;28;20274;-67
2023/09/08 08:32:54;;;;;;;4.70;4.30;;;;;;;22.50;46.10;95368.47;5117935;28;20215;-68
2023/09/08 08:35:22;;;;;;;4.60;4.20;;;;;;;22.44;45.33;95364.53;5118088;28;20196;-67
2023/09/08 08:37:49;;;;;;;4.88;4.38;;;;;;;22.44;45.82;95362.53;5117976;28;20211;-66
2023/09/08 08:40:15;;;;;;;5.28;4.20;;;;;;;22.55;46.67;95356.75;5118583;27;20210;-63
2023/09/08 08:42:44;;;;;;;4.60;4.20;;;;;;;22.66;47.58;95354.59;5117687;28;20638;-64
2023/09/08 08:45:11;;;;;;;5.38;4.72;;;;;;;22.72;47.44;95358.50;5118618;28;20194;-63
2023/09/08 08:47:38;;;;;;;5.13;4.72;;;;;;;22.75;47.86;95363.28;5117480;28;20290;-63
2023/09/08 08:50:06;;;;;;;5.10;4.70;;;;;;;22.73;47.96;95356.47;5117787;28;20209;-63
2023/09/08 08:52:34;;;;;;;4.88;4.18;;;;;;;22.64;46.78;95359.81;5099811;28;20231;-63
2023/09/08 08:55:01;;;;;;;5.60;4.25;;;;;;;22.58;46.91;95355.88;5118141;28;20203;-63
2023/09/08 08:57:28;;;;;;;5.43;4.20;;;;;;;22.52;45.22;95352.78;5117756;28;20211;-64
2023/09/08 08:59:55;;;;;;;4.97;4.43;;;;;;;22.47;47.28;95347.63;5117186;28;20211;-64
2023/09/08 09:02:23;;;;;;;5.45;4.25;;;;;;;22.50;46.12;95345.97;5118136;28;20212;-67
2023/09/08 09:04:50;;;;;;;4.25;3.88;;;;;;;22.49;46.42;95350.03;5118865;28;20180;-67
2023/09/08 09:07:19;;;;;;;4.13;3.60;;;;;;;22.47;45.44;95350.44;5118377;28;20179;-67
2023/09/08 09:09:48;;;;;;;4.78;3.63;;;;;;;22.45;45.70;95341.63;5118249;28;20183;-66
2023/09/08 09:12:15;;;;;;;3.90;3.58;;;;;;;22.69;46.66;95347.31;5117591;28;20215;-66
2023/09/08 09:14:47;;;;;;;7.97;5.18;;;;;;;22.80;45.53;95348.75;5118024;28;20204;-66
2023/09/08 09:17:14;;;;;;;4.28;3.88;;;;;;;22.80;45.21;95345.13;5117020;28;20200;-66
2023/09/08 09:19:41;;;;;;;3.83;3.47;;;;;;;22.76;46.27;95355.63;5117492;28;20202;-66
2023/09/08 09:22:08;;;;;;;4.22;3.55;;;;;;;22.65;43.91;95349.38;5117158;28;20196;-66
2023/09/08 09:24:36;;;;;;;4.65;4.13;;;;;;;22.58;44.97;95345.44;5117575;27;20508;-68
2023/09/08 09:27:06;;;;;;;3.72;3.42;;;;;;;22.59;44.59;95355.50;5118225;28;20592;-67
2023/09/08 09:29:34;;;;;;;4.05;3.75;;;;;;;22.58;44.48;95350.28;5116901;28;20239;-68
2023/09/08 09:32:05;;;;;;;4.25;3.47;;;;;;;22.69;45.97;95344.50;5117981;27;20204;-67
2023/09/08 09:34:32;;;;;;;4.22;3.83;;;;;;;22.80;43.51;95347.94;5116276;28;20294;-67
2023/09/08 09:36:59;;;;;;;4.07;3.75;;;;;;;22.82;43.98;95349.09;5117003;28;20286;-66
2023/09/08 09:39:27;;;;;;;4.25;3.65;;;;;;;22.79;43.59;95349.94;5117762;28;20192;-67
2023/09/08 09:41:55;;;;;;;4.22;3.83;;;;;;;22.74;44.18;95358.09;5117735;28;20516;-66
2023/09/08 09:44:23;;;;;;;4.25;3.85;;;;;;;22.72;44.27;95343.66;5116758;28;20201;-66
2023/09/08 09:46:53;;;;;;;3.83;3.53;;;;;;;22.89;44.58;95344.59;5116691;28;20232;-66
2023/09/08 09:49:19;;;;;;;4.13;3.83;;;;;;;23.01;43.76;95336.38;5117774;28;20180;-63
2023/09/08 09:51:48;;;;;;;4.28;3.60;;;;;;;23.06;45.27;95343.53;5117184;28;20192;-64
2023/09/08 09:54:15;;;;;;;4.10;3.80;;;;;;;23.10;44.81;95335.84;5116660;28;20604;-64
2023/09/08 09:56:42;;;;;;;4.18;3.78;;;;;;;23.10;45.23;95338.66;5116937;28;20184;-64
2023/09/08 09:59:10;;;;;;;4.18;3.88;;;;;;;23.10;44.76;95335.03;5117200;28;20252;-64
2023/09/08 10:01:39;;;;;;;4.03;3.65;;;;;;;23.06;44.89;95329.47;5116088;28;20211;-64
2023/09/08 10:04:06;;;;;;;4.25;3.85;;;;;;;23.05;44.39;95328.66;5115345;28;20195;-63
2023/09/08 10:06:33;;;;;;;4.05;3.70;;;;;;;23.02;44.73;95337.16;5116934;28;20184;-64
2023/09/08 10:09:01;;;;;;;4.53;4.13;;;;;;;23.02;44.55;95320.28;5116910;28;20196;-64
2023/09/08 10:11:31;;;;;;;5.63;4.15;;;;;;;23.02;44.59;95321.09;5117053;28;20180;-64
2023/09/08 10:14:00;;;;;;;4.57;4.15;;;;;;;23.10;43.99;95333.03;5116831;28;20227;-63
2023/09/08 10:16:28;;;;;;;4.65;3.67;;;;;;;23.10;44.30;95318.94;5115867;28;20549;-64
2023/09/08 10:19:00;;;;;;;4.07;3.78;;;;;;;23.15;44.49;95318.44;5116634;28;20188;-64
2023/09/08 10:21:27;;;;;;;4.72;4.10;;;;;;;23.13;44.19;95318.09;5115998;28;20242;-64
2023/09/08 10:23:59;;;;;;;4.22;3.78;;;;;;;23.23;44.34;95305.03;5116151;28;20187;-64
2023/09/08 10:26:28;;;;;;;4.43;3.97;;;;;;;23.22;44.31;95309.88;5115446;28;20204;-64
2023/09/08 10:28:56;;;;;;;4.78;3.85;;;;;;;23.21;44.53;95304.69;5117840;27;20271;-64
2023/09/08 10:31:25;;;;;;;4.07;3.65;;;;;;;23.17;44.41;95313.19;5137132;27;20193;-67
2023/09/08 10:33:52;;;;;;;5.80;4.45;;;;;;;23.16;44.79;95311.59;5119303;27;20218;-67
2023/09/08 10:36:20;;;;;;;4.45;4.00;;;;;;;23.25;45.29;95305.41;5118991;27;20252;-67
2023/09/08 10:38:49;;;;;;;4.53;4.13;;;;;;;23.31;43.76;95300.88;5136900;27;20207;-67
2023/09/08 10:41:36;;;;;;;4.72;4.10;;;;;;;23.28;44.74;95298.94;5119222;27;20194;-66
2023/09/08 10:44:06;;;;;;;5.53;4.03;;;;;;;23.24;44.38;95296.19;5114000;27;20202;-66
2023/09/08 10:46:34;;;;;;;7.07;4.43;;;;;;;23.20;44.34;95300.28;5136921;27;20248;-66
2023/09/08 10:49:06;;;;;;;4.20;3.72;;;;;;;23.16;44.90;95300.34;5137139;27;20194;-66
2023/09/08 10:51:35;;;;;;;5.28;3.80;;;;;;;23.21;44.96;95299.06;5137120;27;20191;-65
2023/09/08 10:54:02;;;;;;;4.35;3.95;;;;;;;23.22;45.29;95290.19;5118321;27;20234;-67
2023/09/08 10:56:30;;;;;;;5.63;4.07;;;;;;;23.23;44.82;95293.78;5118552;27;20199;-65
2023/09/08 10:59:01;;;;;;;3.80;3.50;;;;;;;23.37;44.68;95299.16;5119188;27;20199;-66
2023/09/08 11:01:28;;;;;;;4.05;3.75;;;;;;;23.54;43.56;95286.78;5136678;27;20187;-65
2023/09/08 11:03:54;;;;;;;4.03;3.65;;;;;;;23.74;44.05;95291.63;5118218;27;20231;-64
2023/09/08 11:06:23;;;;;;;3.97;3.63;;;;;;;23.90;43.62;95280.44;5118270;27;20191;-66
2023/09/08 11:08:55;;;;;;;4.28;3.63;;;;;;;23.98;42.98;95289.53;5118337;27;20290;-65
2023/09/08 11:11:22;;;;;;;4.35;3.95;;;;;;;24.05;42.57;95277.31;5136321;27;20194;-67
2023/09/08 11:13:49;;;;;;;4.30;3.90;;;;;;;24.09;42.16;95273.19;5118508;27;20211;-64
2023/09/08 11:16:21;;;;;;;4.18;3.80;;;;;;;24.16;42.53;95270.22;5135800;27;20183;-66
2023/09/08 11:18:47;;;;;;;5.07;4.13;;;;;;;24.28;42.08;95265.91;5118356;27;20195;-65
2023/09/08 11:21:14;;;;;;;4.07;3.78;;;;;;;24.33;42.27;95267.41;5136281;27;20202;-66
2023/09/08 11:23:41;;;;;;;4.22;3.78;;;;;;;24.36;42.42;95270.16;5136253;27;20194;-65
2023/09/08 11:26:10;;;;;;;6.00;3.80;;;;;;;24.35;42.06;95267.78;5118278;27;20206;-66
2023/09/08 11:28:37;;;;;;;4.10;3.80;;;;;;;24.38;41.87;95266.91;5118229;28;20203;-65
2023/09/08 11:31:04;;;;;;;4.15;3.75;;;;;;;24.40;41.79;95261.63;5136376;28;20313;-65
2023/09/08 11:33:38;;;;;;;5.80;4.20;;;;;;;24.46;41.98;95266.31;5136268;28;20199;-65
2023/09/08 11:36:13;;;;;;;4.47;4.07;;;;;;;24.57;41.88;95254.00;5117993;28;20638;-66